Time;durP1;ratioP1;P1;durP2;ratioP2;P2;SDS_P1;SDS_P2;PMS_P1;PMS_P2;Temp;Humidity;BMP_temperature;BMP_pressure;BME280_temperature;BME280_humidity;BME280_pressure;Samples;Min_cycle;Max_cycle;Signal;HPM_P1;HPM_P2
2023/09/13 00:00:54;;;;;;;31.08;20.45;;;;;;;;;;4993742;28;25166;-74
2023/09/13 00:03:19;;;;;;;29.65;19.88;;;;;;;;;;4989011;28;25054;-73
2023/09/13 00:05:46;;;;;;;32.85;20.83;;;;;;;;;;4994856;28;25097;-72
2023/09/13 00:08:12;;;;;;;30.98;19.52;;;;;;;;;;4998043;28;25079;-74
2023/09/13 00:10:38;;;;;;;27.70;18.63;;;;;;;;;;5000085;28;25080;-73
2023/09/13 00:13:04;;;;;;;32.08;18.92;;;;;;;;;;4995800;28;25073;-72
2023/09/13 00:15:30;;;;;;;26.63;18.98;;;;;;;;;;4992475;28;25051;-73
2023/09/13 00:17:56;;;;;;;27.02;19.42;;;;;;;;;;4995159;28;25073;-73
2023/09/13 00:20:22;;;;;;;26.58;19.08;;;;;;;;;;4987038;28;25111;-73
2023/09/13 00:22:48;;;;;;;28.42;19.00;;;;;;;;;;4991251;28;25050;-72
2023/09/13 00:25:14;;;;;;;26.45;19.63;;;;;;;;;;4995195;28;25136;-74
2023/09/13 00:27:40;;;;;;;30.77;18.80;;;;;;;;;;4992838;28;25083;-74
2023/09/13 00:30:08;;;;;;;27.30;19.30;;;;;;;;;;4988274;28;25067;-73
2023/09/13 00:32:35;;;;;;;28.50;20.17;;;;;;;;;;4984203;28;25350;-75
2023/09/13 00:35:01;;;;;;;30.10;20.20;;;;;;;;;;4985726;28;25062;-73
2023/09/13 00:37:27;;;;;;;34.28;21.33;;;;;;;;;;4991918;28;25066;-73
2023/09/13 00:39:53;;;;;;;27.40;19.77;;;;;;;;;;4991759;28;25080;-74
2023/09/13 00:42:18;;;;;;;36.13;22.52;;;;;;;;;;4988007;28;25089;-73
2023/09/13 00:44:44;;;;;;;32.83;22.02;;;;;;;;;;4987639;28;25138;-72
2023/09/13 00:47:12;;;;;;;37.67;24.42;;;;;;;;;;4988752;28;25075;-73
2023/09/13 00:49:38;;;;;;;41.47;27.75;;;;;;;;;;4989895;28;25057;-72
2023/09/13 00:52:05;;;;;;;45.63;27.95;;;;;;;;;;4989393;28;25068;-72
2023/09/13 00:54:31;;;;;;;40.40;27.73;;;;;;;;;;4996659;28;25076;-72
2023/09/13 00:56:57;;;;;;;45.75;27.73;;;;;;;;;;4989709;28;25054;-73
2023/09/13 00:59:24;;;;;;;43.92;29.77;;;;;;;;;;4989600;28;25072;-72
2023/09/13 01:01:50;;;;;;;49.03;30.75;;;;;;;;;;4985572;28;25056;-73
2023/09/13 01:04:16;;;;;;;52.03;31.48;;;;;;;;;;4987063;28;25057;-73
2023/09/13 01:06:42;;;;;;;50.85;31.45;;;;;;;;;;4990217;28;25055;-69
2023/09/13 01:09:08;;;;;;;49.90;29.70;;;;;;;;;;4991674;28;25095;-73
2023/09/13 01:11:34;;;;;;;55.35;33.30;;;;;;;;;;4992183;28;25074;-74
2023/09/13 01:14:00;;;;;;;52.92;34.22;;;;;;;;;;4987835;28;25136;-71
2023/09/13 01:16:32;;;;;;;56.53;34.20;;;;;;;;;;4988854;28;25073;-71
2023/09/13 01:18:58;;;;;;;;;;;;;;;;;;4990551;28;25062;-72
2023/09/13 01:21:43;;;;;;;57.65;32.75;;;;;;;;;;4991263;28;25059;-72
2023/09/13 01:24:24;;;;;;;53.72;35.00;;;;;;;;;;4981997;28;25056;-72
2023/09/13 01:26:52;;;;;;;59.97;38.90;;;;;;;;;;4992936;28;25138;-72
2023/09/13 01:29:20;;;;;;;60.80;36.00;;;;;;;;;;4988335;28;25134;-73
2023/09/13 01:31:47;;;;;;;63.83;37.95;;;;;;;;;;4987795;28;25100;-72
2023/09/13 01:34:13;;;;;;;66.18;40.83;;;;;;;;;;4987844;28;25165;-72
2023/09/13 01:36:41;;;;;;;67.38;40.97;;;;;;;;;;4988172;28;25110;-73
2023/09/13 01:39:07;;;;;;;70.40;41.67;;;;;;;;;;4989001;28;25152;-71
2023/09/13 01:41:53;;;;;;;69.45;41.30;;;;;;;;;;4989478;28;25122;-72
2023/09/13 01:44:20;;;;;;;64.82;38.83;;;;;;;;;;4986174;28;25062;-73
2023/09/13 01:46:46;;;;;;;64.47;38.70;;;;;;;;;;4990461;28;25068;-72
2023/09/13 01:49:13;;;;;;;63.80;37.75;;;;;;;;;;4991991;28;25059;-72
2023/09/13 01:51:40;;;;;;;57.00;36.17;;;;;;;;;;4967594;28;25115;-72
2023/09/13 01:54:06;;;;;;;54.08;34.95;;;;;;;;;;4967842;28;25085;-72
2023/09/13 01:56:32;;;;;;;55.28;34.30;;;;;;;;;;4967580;28;25064;-71
2023/09/13 01:58:58;;;;;;;47.60;31.48;;;;;;;;;;4962166;28;25097;-72
2023/09/13 02:01:24;;;;;;;52.95;34.03;;;;;;;;;;4963673;28;25150;-72
2023/09/13 02:03:50;;;;;;;58.60;36.35;;;;;;;;;;4972908;28;25066;-70
2023/09/13 02:06:16;;;;;;;58.95;35.30;;;;;;;;;;4963476;28;25068;-71
2023/09/13 02:08:43;;;;;;;61.20;35.92;;;;;;;;;;4964366;28;25075;-70
2023/09/13 02:11:10;;;;;;;60.38;35.67;;;;;;;;;;4968802;28;25067;-72
2023/09/13 02:13:36;;;;;;;57.55;33.50;;;;;;;;;;4974069;28;25099;-73
2023/09/13 02:16:03;;;;;;;60.10;36.47;;;;;;;;;;4970158;28;25155;-72
2023/09/13 02:18:28;;;;;;;51.63;34.05;;;;;;;;;;4967726;28;25131;-72
2023/09/13 02:20:54;;;;;;;60.05;36.10;;;;;;;;;;4968615;28;25142;-70
2023/09/13 02:23:20;;;;;;;60.40;34.50;;;;;;;;;;4970788;28;25144;-71
2023/09/13 02:25:47;;;;;;;58.58;34.53;;;;;;;;;;4971030;28;25063;-73
2023/09/13 02:28:13;;;;;;;58.42;35.55;;;;;;;;;;4974715;28;25156;-72
2023/09/13 02:30:40;;;;;;;56.13;35.28;;;;;;;;;;4993671;28;25087;-71
2023/09/13 02:33:06;;;;;;;58.55;35.20;;;;;;;;;;4989839;28;25063;-73
2023/09/13 02:35:32;;;;;;;61.72;36.53;;;;;;;;;;4991256;28;25075;-72
2023/09/13 02:37:59;;;;;;;57.42;35.15;;;;;;;;;;4988949;28;25072;-72
2023/09/13 02:40:25;;;;;;;57.30;34.53;;;;;;;;;;4993107;28;25068;-73
2023/09/13 02:42:51;;;;;;;52.22;33.38;;;;;;;;;;4996998;28;25046;-73
2023/09/13 02:45:17;;;;;;;54.38;34.08;;;;;;;;;;4995531;28;25062;-72
2023/09/13 02:47:43;;;;;;;53.15;35.13;;;;;;;;;;4992280;28;25078;-71
2023/09/13 02:50:09;;;;;;;52.88;33.13;;;;;;;;;;4993555;28;25053;-75
2023/09/13 02:52:35;;;;;;;55.15;35.60;;;;;;;;;;4997933;28;25087;-73
2023/09/13 02:55:05;;;;;;;59.85;34.78;;;;;;;;;;4997573;28;25151;-72
2023/09/13 02:57:31;;;;;;;55.05;33.53;;;;;;;;;;4981417;28;25069;-71
2023/09/13 02:59:57;;;;;;;53.88;33.97;;;;;;;;;;4994040;28;25128;-71
2023/09/13 03:02:23;;;;;;;56.83;35.88;;;;;;;;;;4991343;28;25136;-73
2023/09/13 03:04:51;;;;;;;58.63;37.90;;;;;;;;;;4989722;28;25054;-72
2023/09/13 03:07:17;;;;;;;63.83;36.97;;;;;;;;;;4989379;28;25074;-72
2023/09/13 03:09:44;;;;;;;60.42;37.22;;;;;;;;;;4994374;28;25054;-71
2023/09/13 03:12:10;;;;;;;62.47;38.20;;;;;;;;;;4987981;28;25075;-71
2023/09/13 03:14:36;;;;;;;65.95;37.55;;;;;;;;;;4996024;28;25052;-72
2023/09/13 03:17:02;;;;;;;63.20;37.38;;;;;;;;;;4993220;28;25065;-72
2023/09/13 03:19:30;;;;;;;60.80;37.42;;;;;;;;;;4990365;28;25107;-72
2023/09/13 03:21:56;;;;;;;63.08;37.65;;;;;;;;;;4990395;28;25055;-72
2023/09/13 03:24:22;;;;;;;62.60;37.38;;;;;;;;;;4990356;28;25069;-70
2023/09/13 03:26:48;;;;;;;60.92;38.05;;;;;;;;;;4989674;28;25078;-71
2023/09/13 03:29:15;;;;;;;59.25;35.92;;;;;;;;;;4994772;28;25082;-73
2023/09/13 03:31:41;;;;;;;69.63;37.47;;;;;;;;;;4990207;28;25149;-73
2023/09/13 03:34:07;;;;;;;55.50;35.08;;;;;;;;;;4993931;28;25070;-71
2023/09/13 03:36:33;;;;;;;59.75;35.85;;;;;;;;;;4986789;28;25157;-70
2023/09/13 03:39:00;;;;;;;63.38;33.65;;;;;;;;;;4989194;28;25067;-72
2023/09/13 03:41:28;;;;;;;63.97;35.53;;;;;;;;;;4988335;28;25045;-72
2023/09/13 03:43:54;;;;;;;60.72;33.28;;;;;;;;;;4990324;28;25080;-72
2023/09/13 03:46:20;;;;;;;63.53;34.05;;;;;;;;;;4992738;28;25109;-71
2023/09/13 03:48:46;;;;;;;64.35;32.95;;;;;;;;;;4989229;28;25047;-73
2023/09/13 03:51:12;;;;;;;50.03;27.70;;;;;;;;;;4989430;28;25075;-71
2023/09/13 03:53:38;;;;;;;46.15;24.35;;;;;;;;;;4990036;28;25139;-73
2023/09/13 03:56:05;;;;;;;41.85;22.73;;;;;;;;;;4990297;28;25066;-72
2023/09/13 03:58:33;;;;;;;40.38;21.52;;;;;;;;;;4988290;28;25088;-72
2023/09/13 04:00:59;;;;;;;42.38;22.30;;;;;;;;;;4989358;28;25071;-73
2023/09/13 04:03:25;;;;;;;38.30;22.17;;;;;;;;;;4992892;28;25055;-72
2023/09/13 04:05:51;;;;;;;41.80;24.65;;;;;;;;;;4992674;28;25062;-71
2023/09/13 04:08:17;;;;;;;45.13;24.50;;;;;;;;;;4996840;28;25136;-72
2023/09/13 04:10:43;;;;;;;45.10;25.33;;;;;;;;;;4987402;28;25062;-73
2023/09/13 04:13:09;;;;;;;47.05;25.60;;;;;;;;;;4993481;28;25074;-71
2023/09/13 04:15:35;;;;;;;47.72;26.85;;;;;;;;;;4990104;28;25128;-73
2023/09/13 04:18:02;;;;;;;53.17;28.42;;;;;;;;;;4989330;28;25073;-71
2023/09/13 04:20:28;;;;;;;54.15;29.60;;;;;;;;;;4987387;28;24845;-73
2023/09/13 04:22:54;;;;;;;51.20;29.30;;;;;;;;;;4994000;28;25153;-73
2023/09/13 04:25:20;;;;;;;52.03;30.52;;;;;;;;;;4989546;28;25111;-73
2023/09/13 04:27:46;;;;;;;64.32;33.13;;;;;;;;;;4989502;28;25068;-71
2023/09/13 04:30:13;;;;;;;62.53;32.90;;;;;;;;;;4988568;28;25119;-75
2023/09/13 04:32:39;;;;;;;61.75;32.97;;;;;;;;;;4987440;28;25093;-71
2023/09/13 04:35:05;;;;;;;57.50;30.73;;;;;;;;;;4985605;28;25105;-73
2023/09/13 04:37:31;;;;;;;56.15;29.77;;;;;;;;;;4990758;28;25062;-70
2023/09/13 04:39:58;;;;;;;50.55;29.38;;;;;;;;;;4994002;28;25077;-74
2023/09/13 04:42:24;;;;;;;46.22;26.35;;;;;;;;;;4988911;28;25057;-72
2023/09/13 04:44:50;;;;;;;54.40;29.42;;;;;;;;;;4989671;28;25141;-72
2023/09/13 04:47:16;;;;;;;51.70;27.38;;;;;;;;;;4991563;28;25088;-73
2023/09/13 04:49:41;;;;;;;51.97;28.35;;;;;;;;;;4994886;28;25075;-75
2023/09/13 04:52:09;;;;;;;50.97;28.90;;;;;;;;;;4994901;28;25069;-75
2023/09/13 04:54:36;;;;;;;53.25;27.95;;;;;;;;;;4993368;28;25094;-74
2023/09/13 04:57:02;;;;;;;46.33;27.75;;;;;;;;;;4991768;28;25118;-74
2023/09/13 04:59:41;;;;;;;44.60;25.40;;;;;;;;;;4987277;28;25080;-71
2023/09/13 05:02:07;;;;;;;47.55;26.05;;;;;;;;;;4991234;28;25094;-72
2023/09/13 05:04:33;;;;;;;45.95;27.10;;;;;;;;;;4995923;28;25067;-72
2023/09/13 05:06:59;;;;;;;46.95;25.35;;;;;;;;;;4990918;28;25052;-72
2023/09/13 05:09:24;;;;;;;47.65;25.52;;;;;;;;;;4991161;28;25131;-73
2023/09/13 05:11:50;;;;;;;48.92;25.60;;;;;;;;;;4988239;28;25172;-72
2023/09/13 05:14:16;;;;;;;47.40;26.42;;;;;;;;;;4988891;28;25145;-70
2023/09/13 05:16:42;;;;;;;39.75;24.58;;;;;;;;;;4987775;28;25083;-70
2023/09/13 05:19:08;;;;;;;38.60;23.52;;;;;;;;;;4984656;28;25080;-72
2023/09/13 05:21:34;;;;;;;40.63;24.38;;;;;;;;;;4986436;28;25074;-73
2023/09/13 05:24:01;;;;;;;39.95;22.27;;;;;;;;;;4991294;28;25133;-72
2023/09/13 05:26:27;;;;;;;36.95;24.05;;;;;;;;;;4991505;28;25075;-72
2023/09/13 05:28:52;;;;;;;31.77;21.08;;;;;;;;;;4991498;28;25135;-72
2023/09/13 05:31:19;;;;;;;36.53;23.33;;;;;;;;;;4993029;28;25058;-73
2023/09/13 05:33:45;;;;;;;38.47;22.95;;;;;;;;;;5000463;28;25067;-71
2023/09/13 05:36:12;;;;;;;33.65;22.60;;;;;;;;;;4993396;28;25086;-72
2023/09/13 05:38:39;;;;;;;37.15;21.90;;;;;;;;;;4998313;28;25090;-72
2023/09/13 05:41:07;;;;;;;23.10;12.52;;;;;;;;;;4999348;28;25040;-72
2023/09/13 05:43:33;;;;;;;21.17;9.95;;;;;;;;;;4997675;28;25073;-75
2023/09/13 05:45:59;;;;;;;17.23;6.53;;;;;;;;;;4993035;28;25051;-73
2023/09/13 05:48:25;;;;;;;13.27;4.72;;;;;;;;;;4983845;28;25116;-74
2023/09/13 05:50:51;;;;;;;18.42;4.53;;;;;;;;;;4993370;28;25100;-71
2023/09/13 05:53:19;;;;;;;14.55;3.78;;;;;;;;;;4993380;28;25061;-74
2023/09/13 05:55:45;;;;;;;14.50;3.42;;;;;;;;;;4998228;28;25072;-73
2023/09/13 05:58:11;;;;;;;9.38;2.60;;;;;;;;;;4996363;28;25118;-73
2023/09/13 06:00:37;;;;;;;5.15;1.63;;;;;;;;;;4991973;28;25073;-72
2023/09/13 06:03:04;;;;;;;7.45;1.95;;;;;;;;;;4998028;28;25050;-75
2023/09/13 06:05:30;;;;;;;4.57;1.40;;;;;;;;;;4992540;28;25048;-76
2023/09/13 06:07:56;;;;;;;9.18;1.75;;;;;;;;;;4991835;28;25060;-74
2023/09/13 06:10:22;;;;;;;7.72;1.10;;;;;;;;;;4986971;28;25085;-72
2023/09/13 06:12:48;;;;;;;3.35;1.60;;;;;;;;;;4995432;28;25092;-71
2023/09/13 06:15:14;;;;;;;4.65;1.50;;;;;;;;;;4987675;28;25136;-73
2023/09/13 06:17:40;;;;;;;6.32;1.40;;;;;;;;;;4993040;28;25081;-74
2023/09/13 06:20:06;;;;;;;5.03;1.65;;;;;;;;;;4996721;28;25071;-73
2023/09/13 06:22:32;;;;;;;5.57;1.52;;;;;;;;;;4992947;28;25099;-73
2023/09/13 06:24:59;;;;;;;4.47;1.50;;;;;;;;;;4987591;28;25094;-73
2023/09/13 06:27:25;;;;;;;5.40;1.45;;;;;;;;;;4985301;28;25077;-74
2023/09/13 06:29:52;;;;;;;6.07;1.88;;;;;;;;;;4990094;28;25058;-75
2023/09/13 06:32:18;;;;;;;6.97;1.80;;;;;;;;;;4989336;28;25077;-73
2023/09/13 06:34:44;;;;;;;4.18;1.10;;;;;;;;;;4983991;28;25058;-74
2023/09/13 06:37:10;;;;;;;5.18;1.58;;;;;;;;;;4982636;28;25103;-73
2023/09/13 06:39:36;;;;;;;6.75;1.42;;;;;;;;;;4988037;28;25049;-73
2023/09/13 06:42:02;;;;;;;3.13;1.30;;;;;;;;;;4983868;28;25067;-72
2023/09/13 06:44:28;;;;;;;4.75;1.67;;;;;;;;;;4984122;28;25060;-74
2023/09/13 06:46:54;;;;;;;5.82;1.40;;;;;;;;;;4987316;28;25057;-74
2023/09/13 06:49:20;;;;;;;6.15;1.58;;;;;;;;;;4988676;28;25078;-75
2023/09/13 06:51:46;;;;;;;5.15;1.70;;;;;;;;;;4988092;28;25079;-72
2023/09/13 06:54:12;;;;;;;5.72;1.80;;;;;;;;;;4983373;28;25055;-73
2023/09/13 06:56:38;;;;;;;9.38;2.28;;;;;;;;;;4986991;28;25055;-72
2023/09/13 06:59:04;;;;;;;3.95;1.55;;;;;;;;;;4989858;28;25132;-72
2023/09/13 07:01:30;;;;;;;9.52;1.60;;;;;;;;;;4989425;28;25057;-73
2023/09/13 07:03:57;;;;;;;3.90;1.80;;;;;;;;;;4989889;28;25179;-71
2023/09/13 07:06:23;;;;;;;7.90;1.73;;;;;;;;;;4989608;28;25090;-72
2023/09/13 07:08:49;;;;;;;6.75;1.40;;;;;;;;;;4991857;28;25067;-74
2023/09/13 07:11:16;;;;;;;4.05;1.65;;;;;;;;;;4989890;28;25061;-73
2023/09/13 07:13:42;;;;;;;5.75;1.52;;;;;;;;;;4990158;28;25055;-73
2023/09/13 07:16:08;;;;;;;5.82;1.38;;;;;;;;;;4984262;28;25063;-73
2023/09/13 07:18:34;;;;;;;5.68;1.20;;;;;;;;;;4987491;28;25073;-72
2023/09/13 07:21:00;;;;;;;5.10;1.55;;;;;;;;;;4989333;28;25056;-74
2023/09/13 07:23:27;;;;;;;4.05;1.88;;;;;;;;;;4982642;28;25120;-72
2023/09/13 07:25:53;;;;;;;3.15;1.27;;;;;;;;;;4988686;28;25093;-75
2023/09/13 07:28:20;;;;;;;5.70;1.73;;;;;;;;;;4986745;28;25116;-74
2023/09/13 07:30:46;;;;;;;11.68;2.55;;;;;;;;;;4982342;28;25070;-74
2023/09/13 07:33:12;;;;;;;1.80;1.17;;;;;;;;;;4987031;28;25094;-73
2023/09/13 07:35:38;;;;;;;4.80;1.40;;;;;;;;;;4986958;28;25075;-73
2023/09/13 07:38:04;;;;;;;3.17;1.67;;;;;;;;;;4984131;28;25067;-71
2023/09/13 07:40:30;;;;;;;8.13;1.67;;;;;;;;;;4984007;28;25072;-74
2023/09/13 07:42:56;;;;;;;4.40;1.40;;;;;;;;;;4988391;28;25124;-74
2023/09/13 07:45:22;;;;;;;4.15;1.52;;;;;;;;;;4986454;28;25050;-73
2023/09/13 07:47:49;;;;;;;2.50;1.20;;;;;;;;;;4987764;28;25081;-73
2023/09/13 07:50:36;;;;;;;3.65;1.40;;;;;;;;;;4987508;28;25059;-73
2023/09/13 07:53:03;;;;;;;4.88;1.80;;;;;;;;;;4988888;28;25078;-75
2023/09/13 07:55:29;;;;;;;3.65;2.22;;;;;;;;;;4988686;28;25072;-74
2023/09/13 07:57:55;;;;;;;6.95;2.08;;;;;;;;;;4989482;28;25065;-73
2023/09/13 08:00:21;;;;;;;4.15;1.65;;;;;;;;;;4986963;28;25118;-74
2023/09/13 08:02:49;;;;;;;6.30;1.17;;;;;;;;;;4979879;28;25057;-71
2023/09/13 08:05:15;;;;;;;5.25;1.45;;;;;;;;;;4986583;28;25164;-74
2023/09/13 08:07:42;;;;;;;4.03;1.30;;;;;;;;;;4988837;28;25053;-72
2023/09/13 08:10:08;;;;;;;3.30;1.63;;;;;;;;;;4986952;28;25087;-73
2023/09/13 08:12:34;;;;;;;2.40;1.13;;;;;;;;;;4985519;28;25059;-73
2023/09/13 08:15:00;;;;;;;1.85;1.20;;;;;;;;;;4987342;28;25067;-75
2023/09/13 08:17:26;;;;;;;1.83;1.27;;;;;;;;;;4985019;28;25096;-76
2023/09/13 08:19:52;;;;;;;4.40;1.30;;;;;;;;;;4987553;28;25059;-71
2023/09/13 08:22:18;;;;;;;3.58;0.98;;;;;;;;;;4983783;28;25060;-75
2023/09/13 08:24:43;;;;;;;2.65;1.15;;;;;;;;;;4983070;28;25059;-72
2023/09/13 08:27:09;;;;;;;2.17;1.23;;;;;;;;;;4979621;28;25110;-75
2023/09/13 08:29:35;;;;;;;5.93;1.23;;;;;;;;;;4987060;28;25049;-72
2023/09/13 08:32:02;;;;;;;5.35;1.35;;;;;;;;;;4989669;28;25151;-76
2023/09/13 08:34:28;;;;;;;4.13;1.00;;;;;;;;;;4988453;28;25079;-75
2023/09/13 08:36:56;;;;;;;4.50;0.98;;;;;;;;;;4988583;28;25072;-75
2023/09/13 08:39:22;;;;;;;4.65;1.15;;;;;;;;;;4987808;28;25064;-75
2023/09/13 08:41:51;;;;;;;3.53;0.93;;;;;;;;;;4988164;28;25165;-73
2023/09/13 08:44:20;;;;;;;3.05;1.05;;;;;;;;;;4988105;28;25165;-73
2023/09/13 08:46:48;;;;;;;1.98;0.93;;;;;;;;;;4988983;28;25077;-73
2023/09/13 08:49:16;;;;;;;1.30;0.90;;;;;;;;;;4987788;28;25088;-74
2023/09/13 08:51:44;;;;;;;2.22;1.10;;;;;;;;;;4988167;28;25092;-74
2023/09/13 08:54:10;;;;;;;3.70;1.00;;;;;;;;;;4986178;28;25049;-75
2023/09/13 08:56:37;;;;;;;1.10;1.00;;;;;;;;;;4988986;28;25124;-75
2023/09/13 08:59:03;;;;;;;3.97;1.25;;;;;;;;;;4988517;28;25100;-76
2023/09/13 09:01:31;;;;;;;1.77;1.08;;;;;;;;;;4988430;28;25059;-75
2023/09/13 09:03:57;;;;;;;0.90;0.90;;;;;;;;;;4989385;28;25086;-73
2023/09/13 09:06:23;;;;;;;3.40;1.40;;;;;;;;;;4986222;28;25080;-76
2023/09/13 09:08:50;;;;;;;4.28;1.02;;;;;;;;;;4980421;28;25057;-77
2023/09/13 09:11:18;;;;;;;2.03;1.25;;;;;;;;;;5006443;28;25116;-73
2023/09/13 09:13:46;;;;;;;3.17;1.52;;;;;;;;;;5002054;28;25149;-74
2023/09/13 09:16:13;;;;;;;2.33;1.40;;;;;;;;;;5000821;28;25080;-74
2023/09/13 09:18:40;;;;;;;1.73;1.15;;;;;;;;;;4989156;28;25075;-74
2023/09/13 09:21:06;;;;;;;5.10;1.17;;;;;;;;;;4987990;28;25063;-75
2023/09/13 09:23:34;;;;;;;3.33;1.42;;;;;;;;;;4984696;28;25166;-74
2023/09/13 09:26:03;;;;;;;3.30;1.20;;;;;;;;;;4988044;28;25127;-73
2023/09/13 09:28:29;;;;;;;2.20;0.95;;;;;;;;;;4987758;28;25072;-73
2023/09/13 09:30:55;;;;;;;5.93;1.25;;;;;;;;;;4988265;28;25108;-74
2023/09/13 09:33:27;;;;;;;3.10;1.10;;;;;;;;;;4985338;28;25070;-72
2023/09/13 09:35:54;;;;;;;4.00;1.65;;;;;;;;;;4996481;28;25074;-74
2023/09/13 09:38:21;;;;;;;2.28;0.93;;;;;;;;;;4997039;28;25088;-73
2023/09/13 09:40:48;;;;;;;2.78;0.98;;;;;;;;;;4995216;28;25048;-73
2023/09/13 09:43:14;;;;;;;2.75;1.10;;;;;;;;;;4992121;28;25079;-72
2023/09/13 09:45:40;;;;;;;1.85;1.17;;;;;;;;;;4993124;28;25059;-74
2023/09/13 09:48:07;;;;;;;2.17;1.08;;;;;;;;;;4994955;28;25072;-73
2023/09/13 09:50:33;;;;;;;1.60;0.95;;;;;;;;;;4983906;28;25082;-74
2023/09/13 09:52:59;;;;;;;4.63;1.23;;;;;;;;;;4987055;28;25084;-73
2023/09/13 09:55:28;;;;;;;1.63;1.00;;;;;;;;;;4985881;28;25068;-73
2023/09/13 09:57:55;;;;;;;2.38;1.15;;;;;;;;;;4981920;28;24966;-73
2023/09/13 10:00:22;;;;;;;3.60;1.00;;;;;;;;;;4992496;28;25058;-75
2023/09/13 10:02:48;;;;;;;2.97;0.80;;;;;;;;;;4995469;28;25072;-74
2023/09/13 10:05:17;;;;;;;4.22;1.20;;;;;;;;;;4988191;28;25100;-73
2023/09/13 10:07:50;;;;;;;8.18;1.40;;;;;;;;;;4988031;28;25076;-76
2023/09/13 10:10:37;;;;;;;4.78;1.33;;;;;;;;;;4987135;28;25069;-75
2023/09/13 10:13:06;;;;;;;2.03;1.40;;;;;;;;;;4988775;28;25070;-72
2023/09/13 10:15:33;;;;;;;6.75;1.60;;;;;;;;;;4993415;28;25067;-72
2023/09/13 10:18:00;;;;;;;3.58;1.75;;;;;;;;;;4992096;28;25148;-75
2023/09/13 10:20:28;;;;;;;3.35;1.60;;;;;;;;;;4989596;28;25054;-73
2023/09/13 10:22:58;;;;;;;6.18;1.75;;;;;;;;;;4983301;28;25074;-76
2023/09/13 10:25:24;;;;;;;5.78;1.58;;;;;;;;;;4996222;28;25088;-74
2023/09/13 10:27:54;;;;;;;2.33;1.60;;;;;;;;;;4988648;28;25060;-76
2023/09/13 10:30:22;;;;;;;4.78;1.85;;;;;;;;;;4989033;28;25065;-76
2023/09/13 10:32:51;;;;;;;7.57;2.05;;;;;;;;;;4987001;28;25072;-71
2023/09/13 10:35:18;;;;;;;4.95;1.83;;;;;;;;;;4992324;28;25071;-73
2023/09/13 10:37:50;;;;;;;6.43;1.42;;;;;;;;;;4996725;28;25066;-74
2023/09/13 10:40:20;;;;;;;6.90;2.10;;;;;;;;;;4997022;28;24811;-74
2023/09/13 10:42:46;;;;;;;5.97;1.80;;;;;;;;;;4997334;28;25079;-74
2023/09/13 10:45:17;;;;;;;6.40;1.48;;;;;;;;;;4997056;28;25106;-76
2023/09/13 10:47:43;;;;;;;4.75;1.67;;;;;;;;;;5003095;28;25163;-71
2023/09/13 10:50:09;;;;;;;5.78;1.50;;;;;;;;;;5004680;28;25080;-73
2023/09/13 10:52:35;;;;;;;5.57;1.70;;;;;;;;;;4998889;28;25091;-76
2023/09/13 10:55:06;;;;;;;2.30;1.27;;;;;;;;;;4995215;28;25137;-75
2023/09/13 10:57:33;;;;;;;2.85;1.58;;;;;;;;;;5000641;28;25082;-74
2023/09/13 10:59:59;;;;;;;4.40;1.40;;;;;;;;;;4998096;28;25066;-73
2023/09/13 11:02:26;;;;;;;3.60;1.20;;;;;;;;;;4995387;28;25157;-70
2023/09/13 11:04:52;;;;;;;2.30;0.93;;;;;;;;;;5002301;28;25059;-75
2023/09/13 11:07:18;;;;;;;2.03;1.05;;;;;;;;;;4996431;28;25094;-74
2023/09/13 11:09:45;;;;;;;6.28;1.35;;;;;;;;;;5010066;28;25086;-73
2023/09/13 11:12:12;;;;;;;8.38;1.90;;;;;;;;;;4999371;28;25165;-74
2023/09/13 11:14:43;;;;;;;2.30;1.30;;;;;;;;;;5010485;28;25064;-73
2023/09/13 11:17:11;;;;;;;4.63;1.40;;;;;;;;;;5007802;28;25050;-73
2023/09/13 11:19:37;;;;;;;6.88;1.10;;;;;;;;;;5008949;28;25161;-72
2023/09/13 11:22:04;;;;;;;5.68;1.40;;;;;;;;;;5010530;28;25065;-73
2023/09/13 11:24:43;;;;;;;4.13;1.10;;;;;;;;;;4999058;28;25063;-74
2023/09/13 11:27:17;;;;;;;5.70;1.30;;;;;;;;;;5019010;28;25055;-74
2023/09/13 11:29:44;;;;;;;2.55;0.95;;;;;;;;;;5006624;28;25073;-76
2023/09/13 11:32:26;;;;;;;2.80;1.13;;;;;;;;;;5016519;28;25104;-75
2023/09/13 11:34:57;;;;;;;5.65;1.33;;;;;;;;;;5007749;28;25050;-75
2023/09/13 11:37:26;;;;;;;5.68;1.40;;;;;;;;;;4995391;28;25062;-73
2023/09/13 11:39:56;;;;;;;3.70;1.88;;;;;;;;;;5008343;28;25083;-73
2023/09/13 11:42:28;;;;;;;7.47;1.88;;;;;;;;;;5000604;28;25124;-73
2023/09/13 11:44:57;;;;;;;2.05;1.40;;;;;;;;;;5018034;28;25082;-75
2023/09/13 11:47:23;;;;;;;4.22;1.42;;;;;;;;;;5016136;28;25063;-74
2023/09/13 11:49:52;;;;;;;4.97;1.50;;;;;;;;;;5026522;28;25059;-75
2023/09/13 11:52:19;;;;;;;4.40;1.75;;;;;;;;;;5019155;28;25070;-75
2023/09/13 11:55:00;;;;;;;4.78;1.90;;;;;;;;;;5013262;28;25104;-76
2023/09/13 11:57:45;;;;;;;5.60;1.65;;;;;;;;;;5013285;28;25087;-76
2023/09/13 12:00:14;;;;;;;6.90;2.10;;;;;;;;;;5020409;28;25057;-75
2023/09/13 12:02:43;;;;;;;7.65;2.88;;;;;;;;;;5020130;28;25080;-75
2023/09/13 12:05:10;;;;;;;5.72;1.83;;;;;;;;;;5017922;28;25076;-74
2023/09/13 12:07:41;;;;;;;5.82;1.90;;;;;;;;;;5010603;28;25060;-76
2023/09/13 12:10:07;;;;;;;5.28;1.65;;;;;;;;;;5018453;28;25076;-72
2023/09/13 12:12:40;;;;;;;6.22;1.98;;;;;;;;;;5012886;28;25053;-75
2023/09/13 12:15:06;;;;;;;5.20;1.85;;;;;;;;;;5010017;28;25062;-75
2023/09/13 12:17:39;;;;;;;7.68;2.75;;;;;;;;;;5016112;28;25086;-75
2023/09/13 12:20:06;;;;;;;4.68;1.92;;;;;;;;;;5001499;28;25057;-74
2023/09/13 12:22:38;;;;;;;6.95;2.20;;;;;;;;;;5010026;28;25075;-74
2023/09/13 12:25:05;;;;;;;8.63;2.13;;;;;;;;;;5001799;28;25059;-74
2023/09/13 12:27:31;;;;;;;5.72;2.10;;;;;;;;;;5006487;28;25127;-76
2023/09/13 12:29:57;;;;;;;6.75;2.63;;;;;;;;;;4994002;28;25080;-73
2023/09/13 12:32:23;;;;;;;3.42;1.67;;;;;;;;;;5006808;28;25185;-75
2023/09/13 12:34:49;;;;;;;7.20;1.88;;;;;;;;;;4999135;28;25060;-74
2023/09/13 12:37:15;;;;;;;5.25;2.05;;;;;;;;;;5002191;28;25137;-75
2023/09/13 12:39:41;;;;;;;5.03;2.40;;;;;;;;;;5003333;28;25064;-75
2023/09/13 12:42:08;;;;;;;3.90;2.42;;;;;;;;;;5007039;28;25059;-74
2023/09/13 12:44:35;;;;;;;5.40;2.70;;;;;;;;;;4991312;28;25078;-73
2023/09/13 12:47:01;;;;;;;3.72;2.30;;;;;;;;;;4995975;28;25057;-72
2023/09/13 12:49:27;;;;;;;7.35;2.75;;;;;;;;;;4994095;28;25169;-73
2023/09/13 12:51:54;;;;;;;6.47;2.70;;;;;;;;;;4998619;28;25087;-74
2023/09/13 12:54:20;;;;;;;8.00;2.72;;;;;;;;;;4993770;28;25075;-73
2023/09/13 12:56:46;;;;;;;6.97;3.08;;;;;;;;;;4988539;28;25056;-74
2023/09/13 12:59:12;;;;;;;8.32;2.97;;;;;;;;;;4990757;28;25109;-74
2023/09/13 13:01:37;;;;;;;7.20;2.67;;;;;;;;;;4988196;28;25068;-73
2023/09/13 13:04:08;;;;;;;6.20;3.25;;;;;;;;;;5004611;28;25076;-73
2023/09/13 13:06:40;;;;;;;5.32;2.50;;;;;;;;;;5007510;28;25075;-74
2023/09/13 13:09:08;;;;;;;4.35;2.70;;;;;;;;;;5007401;28;25057;-72
2023/09/13 13:11:40;;;;;;;8.77;3.10;;;;;;;;;;4992827;28;25064;-74
2023/09/13 13:14:17;;;;;;;8.13;3.38;;;;;;;;;;4989831;28;25104;-75
2023/09/13 13:16:44;;;;;;;7.07;3.03;;;;;;;;;;4990041;28;25068;-75
2023/09/13 13:19:10;;;;;;;7.25;2.72;;;;;;;;;;4997192;28;25089;-74
2023/09/13 13:21:35;;;;;;;5.68;2.83;;;;;;;;;;5001204;28;25103;-72
2023/09/13 13:24:01;;;;;;;13.07;3.20;;;;;;;;;;4991427;28;25158;-72
2023/09/13 13:26:27;;;;;;;3.58;2.13;;;;;;;;;;4989811;28;25099;-75
2023/09/13 13:28:55;;;;;;;4.47;2.53;;;;;;;;;;4989934;28;25071;-75
2023/09/13 13:31:21;;;;;;;10.10;3.45;;;;;;;;;;4989580;28;25124;-73
2023/09/13 13:33:47;;;;;;;7.47;2.85;;;;;;;;;;4994419;28;25060;-73
2023/09/13 13:36:13;;;;;;;6.25;2.25;;;;;;;;;;4990213;28;25154;-74
2023/09/13 13:38:42;;;;;;;5.53;2.33;;;;;;;;;;4995834;28;25105;-72
2023/09/13 13:41:09;;;;;;;5.95;2.88;;;;;;;;;;4984686;28;25070;-73
2023/09/13 13:43:35;;;;;;;5.53;2.50;;;;;;;;;;4988548;28;25055;-71
2023/09/13 13:46:05;;;;;;;11.32;2.97;;;;;;;;;;4985630;28;25081;-74
2023/09/13 13:48:32;;;;;;;5.43;2.75;;;;;;;;;;4981803;28;25071;-73
2023/09/13 13:50:58;;;;;;;8.82;3.35;;;;;;;;;;4993467;28;25065;-75
2023/09/13 13:53:27;;;;;;;8.98;3.53;;;;;;;;;;4989182;28;25126;-76
2023/09/13 13:55:57;;;;;;;5.53;3.03;;;;;;;;;;4986471;28;25053;-75
2023/09/13 13:58:23;;;;;;;7.25;3.53;;;;;;;;;;4995487;28;25058;-75
2023/09/13 14:00:50;;;;;;;3.63;2.70;;;;;;;;;;4988970;28;25096;-74
2023/09/13 14:03:16;;;;;;;7.18;3.20;;;;;;;;;;4991322;28;25073;-73
2023/09/13 14:05:42;;;;;;;5.15;3.40;;;;;;;;;;4991100;28;25064;-74
2023/09/13 14:08:10;;;;;;;8.30;3.78;;;;;;;;;;4981507;28;25121;-72
2023/09/13 14:10:40;;;;;;;11.80;5.20;;;;;;;;;;4986787;28;25084;-74
2023/09/13 14:13:09;;;;;;;10.35;3.95;;;;;;;;;;4990940;28;25050;-71
2023/09/13 14:15:36;;;;;;;7.80;3.72;;;;;;;;;;4995325;28;25130;-72
2023/09/13 14:18:02;;;;;;;9.32;3.60;;;;;;;;;;4998165;28;25070;-73
2023/09/13 14:20:28;;;;;;;7.35;3.25;;;;;;;;;;4990922;28;25123;-73
2023/09/13 14:22:54;;;;;;;6.13;3.15;;;;;;;;;;4989145;28;25124;-74
2023/09/13 14:25:22;;;;;;;6.88;3.33;;;;;;;;;;4992792;28;25056;-72
2023/09/13 14:27:48;;;;;;;6.85;2.72;;;;;;;;;;4999195;28;25058;-74
2023/09/13 14:30:14;;;;;;;12.63;3.67;;;;;;;;;;4997928;28;25095;-74
2023/09/13 14:32:40;;;;;;;10.43;3.00;;;;;;;;;;4992618;28;25069;-72